Record high temperature 33.3°C Record low temperature -24.5°C Record high gust 28.1 kts Record high average 14.1 kts Record daily rain 0.0 mm Record low windchill -28.7°C Record high barometer 1042.1 hPa Record low barometer 947.2 hPa
Daily high pressure 1013.5 hPa Daily low pressure 1012.4 hPa Daily low windchill -9.7°C Daily high heat index 0.5°C Daily high gust speed 16.0 kts W Daily high average speed 9.0 kts W
ESUI Väder
LAST READING AT TIME: 8:30 PM DATE: March 04 2021, time of next update: 8:35 pm
Current WeatherNight time/Dry Current Temperature -5.6°C (21.9°F), Apparent temp -8.8°C
Maximum Temperature (since midnight)0.5°C at: 2:07 PM Minimum Temperature (since midnight)-7.2°C at: 7:45 PM
Average windspeed (ten minute)3.6 kts (6.7 kmh) Wind Direction (ten minute)WSW (255°)
Windchill Temperature -7.9°C Maximum Gust (last hour)6.5 kts (12.0 kmh) at: 8:16 PM
Maximum Gust (since midnight)16.0 kts (29.6 kmh) at: 2:33 PM Maximum 1 minute average (since midnight)9.0 kts (16.7 kmh) at: 1:16 PM
Rainfall (last hour)0.0 mm Rainfall (since midnight)0.0 mm (0.00 in.)---
Rainfall This month 0.0 mm (0.00 in.) Rainfall To date this year 0.0 mm (0.00 in.)
Maximum rain per minute (last hour)0.0 mm/min Maximum rain per hour (last 6 hours)0.0 mm/hour
Yesterdays rainfall 0.0 mm DewPoint -8.7°C (Wet Bulb :-6.4°C )
Humidity 79 %, Humidex -9.4°C Barometer corrected to msl1013.4 hPa
Pressure change 0.0 hPa (last hour) Trend (last hour)STEADY
Pressure change (last 12 hours)+0.9 hPa Pressure change (last 6 hours)+0.7 hPa
Current Indoor Temp. 1.8°C
Current Indoor Hum. 54%



Weather report/warning/Metars

Ornskoldsvik Airport, Sweden (ESNO) 63-24N 018-58E
Mar 04, 2021 - 01:50 PM EST / 2021.03.04 1850 UTC
Wind: from the WNW (300 degrees) at 10 MPH (9 KT):0
Visibility: greater than 7 mile(s):0
Temperature: 23 F (-5 C)
Windchill: 12 F (-11 C):1
Dew Point: 14 F (-10 C)
Relative Humidity: 67%
Pressure (altimeter): 29.88 in. Hg (1012 hPa)
ob: ESNO 041850Z AUTO 30009KT 9999 NCD M05/M10 Q1012
cycle: 19
Kramfors Flygplats, Sweden (ESNK) 63-03N 017-46E 19M
Mar 04, 2021 - 01:50 PM EST / 2021.03.04 1850 UTC
Wind: from the NNW (330 degrees) at 7 MPH (6 KT):0
Visibility: greater than 7 mile(s):0
Temperature: 28 F (-2 C)
Windchill: 21 F (-6 C):1
Dew Point: 14 F (-10 C)
Relative Humidity: 54%
Pressure (altimeter): 29.94 in. Hg (1014 hPa)
ob: ESNK 041850Z AUTO 33006KT 9999 NCD M02/M10 Q1014
cycle: 19
Umea Flygplats, Sweden (ESNU) 63-48N 020-17E 14M
Mar 04, 2021 - 01:50 PM EST / 2021.03.04 1850 UTC
Wind: from the WNW (300 degrees) at 9 MPH (8 KT):0
Visibility: greater than 7 mile(s):0
Temperature: 23 F (-5 C)
Windchill: 14 F (-10 C):1
Dew Point: 12 F (-11 C)
Relative Humidity: 62%
Pressure (altimeter): 29.85 in. Hg (1011 hPa)
ob: ESNU 041850Z 30008KT CAVOK M05/M11 Q1011
cycle: 19
Skelleftea Airport, Sweden (ESNS) 64-38N 021-05E
Mar 04, 2021 - 01:50 PM EST / 2021.03.04 1850 UTC
Wind: from the WSW (250 degrees) at 6 MPH (5 KT):0
Visibility: greater than 7 mile(s):0
Temperature: 23 F (-5 C)
Windchill: 15 F (-9 C):1
Dew Point: 19 F (-7 C)
Relative Humidity: 85%
Pressure (altimeter): 29.85 in. Hg (1011 hPa)
ob: ESNS 041850Z 25005KT CAVOK M05/M07 Q1011
cycle: 19



The data is logged at two minute intervals, but there is data recorded every minute.

Use the RELOAD facility on your browser to retrieve the latest data.

Click here for a daily update of the averages/extremes to date for the month
Created by "Weather Display" software version 10.37S at this start time/date 18:01:28 2021-03-04